sensor_id;sensor_type;location;lat;lon;timestamp;pressure;altitude;pressure_sealevel;temperature;humidity
59367;BME280;45163;47.690;11.770;2023-01-28T00:00:06;93455.78;;;-3.33;100.00
59367;BME280;45163;47.690;11.770;2023-01-28T00:02:34;93465.69;;;-3.33;100.00
59367;BME280;45163;47.690;11.770;2023-01-28T00:05:00;93467.66;;;-3.30;100.00
59367;BME280;45163;47.690;11.770;2023-01-28T00:07:26;93466.88;;;-3.31;100.00
59367;BME280;45163;47.690;11.770;2023-01-28T00:09:52;93463.44;;;-3.31;100.00
59367;BME280;45163;47.690;11.770;2023-01-28T00:12:18;93467.91;;;-3.35;100.00
59367;BME280;45163;47.690;11.770;2023-01-28T00:14:44;93460.91;;;-3.40;100.00
59367;BME280;45163;47.690;11.770;2023-01-28T00:17:13;93464.81;;;-3.37;100.00
59367;BME280;45163;47.690;11.770;2023-01-28T00:19:40;93463.44;;;-3.31;100.00
59367;BME280;45163;47.690;11.770;2023-01-28T00:22:06;93460.66;;;-3.35;100.00
59367;BME280;45163;47.690;11.770;2023-01-28T00:24:32;93457.94;;;-3.38;100.00
59367;BME280;45163;47.690;11.770;2023-01-28T00:26:58;93467.13;;;-3.36;100.00
59367;BME280;45163;47.690;11.770;2023-01-28T00:29:24;93467.28;;;-3.44;100.00
59367;BME280;45163;47.690;11.770;2023-01-28T00:31:50;93468.06;;;-3.44;100.00
59367;BME280;45163;47.690;11.770;2023-01-28T00:34:16;93463.94;;;-3.41;100.00
59367;BME280;45163;47.690;11.770;2023-01-28T00:36:42;93463.28;;;-3.38;100.00
59367;BME280;45163;47.690;11.770;2023-01-28T00:39:13;93458.06;;;-3.47;100.00
59367;BME280;45163;47.690;11.770;2023-01-28T00:41:40;93463.41;;;-3.47;100.00
59367;BME280;45163;47.690;11.770;2023-01-28T00:44:07;93464.44;;;-3.52;100.00
59367;BME280;45163;47.690;11.770;2023-01-28T00:46:33;93462.78;;;-3.56;100.00
59367;BME280;45163;47.690;11.770;2023-01-28T00:48:59;93464.69;;;-3.57;100.00
59367;BME280;45163;47.690;11.770;2023-01-28T00:51:26;93460.88;;;-3.56;100.00
59367;BME280;45163;47.690;11.770;2023-01-28T00:53:52;93464.34;;;-3.55;100.00
59367;BME280;45163;47.690;11.770;2023-01-28T00:56:18;93470.88;;;-3.53;100.00
59367;BME280;45163;47.690;11.770;2023-01-28T00:58:45;93468.56;;;-3.54;100.00
59367;BME280;45163;47.690;11.770;2023-01-28T01:01:29;93468.47;;;-3.58;100.00
59367;BME280;45163;47.690;11.770;2023-01-28T01:03:55;93473.81;;;-3.58;100.00
59367;BME280;45163;47.690;11.770;2023-01-28T01:06:35;93471.50;;;-3.59;100.00
59367;BME280;45163;47.690;11.770;2023-01-28T01:09:07;93478.69;;;-3.60;100.00
59367;BME280;45163;47.690;11.770;2023-01-28T01:11:35;93472.94;;;-3.62;100.00
59367;BME280;45163;47.690;11.770;2023-01-28T01:14:02;93474.06;;;-3.63;100.00
59367;BME280;45163;47.690;11.770;2023-01-28T01:16:30;93476.72;;;-3.63;100.00
59367;BME280;45163;47.690;11.770;2023-01-28T01:18:58;93468.38;;;-3.61;100.00
59367;BME280;45163;47.690;11.770;2023-01-28T01:21:26;93466.84;;;-3.62;100.00
59367;BME280;45163;47.690;11.770;2023-01-28T01:23:53;93466.47;;;-3.61;100.00
59367;BME280;45163;47.690;11.770;2023-01-28T01:26:19;93470.38;;;-3.58;100.00
59367;BME280;45163;47.690;11.770;2023-01-28T01:28:45;93465.81;;;-3.58;100.00
59367;BME280;45163;47.690;11.770;2023-01-28T01:31:16;93468.91;;;-3.56;100.00
59367;BME280;45163;47.690;11.770;2023-01-28T01:33:44;93462.47;;;-3.55;100.00
59367;BME280;45163;47.690;11.770;2023-01-28T01:36:12;93461.75;;;-3.52;100.00
59367;BME280;45163;47.690;11.770;2023-01-28T01:38:39;93459.78;;;-3.55;100.00
59367;BME280;45163;47.690;11.770;2023-01-28T01:41:06;93459.03;;;-3.55;100.00
59367;BME280;45163;47.690;11.770;2023-01-28T01:46:17;93472.06;;;-3.66;100.00
59367;BME280;45163;47.690;11.770;2023-01-28T01:48:44;93472.06;;;-3.66;100.00
59367;BME280;45163;47.690;11.770;2023-01-28T01:51:19;93475.59;;;-3.62;100.00
59367;BME280;45163;47.690;11.770;2023-01-28T01:53:48;93479.25;;;-3.54;100.00
59367;BME280;45163;47.690;11.770;2023-01-28T01:56:18;93471.56;;;-3.56;100.00
59367;BME280;45163;47.690;11.770;2023-01-28T01:58:49;93470.78;;;-3.56;100.00
59367;BME280;45163;47.690;11.770;2023-01-28T02:01:24;93477.91;;;-3.60;100.00
59367;BME280;45163;47.690;11.770;2023-01-28T02:04:05;93467.25;;;-3.60;100.00
59367;BME280;45163;47.690;11.770;2023-01-28T02:06:34;93469.16;;;-3.61;100.00
59367;BME280;45163;47.690;11.770;2023-01-28T02:09:02;93467.81;;;-3.55;100.00
59367;BME280;45163;47.690;11.770;2023-01-28T02:11:31;93468.91;;;-3.56;100.00
59367;BME280;45163;47.690;11.770;2023-01-28T02:14:01;93464.19;;;-3.46;100.00
59367;BME280;45163;47.690;11.770;2023-01-28T02:16:30;93471.41;;;-3.47;100.00
59367;BME280;45163;47.690;11.770;2023-01-28T02:18:56;93464.97;;;-3.46;100.00
59367;BME280;45163;47.690;11.770;2023-01-28T02:32:21;93467.81;;;-3.55;100.00
59367;BME280;45163;47.690;11.770;2023-01-28T02:34:51;93472.00;;;-3.54;100.00
59367;BME280;45163;47.690;11.770;2023-01-28T02:37:26;93477.75;;;-3.52;100.00
59367;BME280;45163;47.690;11.770;2023-01-28T02:40:01;93481.66;;;-3.49;100.00
59367;BME280;45163;47.690;11.770;2023-01-28T02:42:33;93477.75;;;-3.52;100.00
59367;BME280;45163;47.690;11.770;2023-01-28T02:45:02;93474.31;;;-3.52;100.00
59367;BME280;45163;47.690;11.770;2023-01-28T02:47:28;93483.34;;;-3.57;100.00
59367;BME280;45163;47.690;11.770;2023-01-28T02:50:14;93491.34;;;-3.57;100.00
59367;BME280;45163;47.690;11.770;2023-01-28T02:56:17;93490.59;;;-3.57;100.00
59367;BME280;45163;47.690;11.770;2023-01-28T02:59:02;93479.50;;;-3.59;100.00
59367;BME280;45163;47.690;11.770;2023-01-28T03:01:53;93488.50;;;-3.64;100.00
59367;BME280;45163;47.690;11.770;2023-01-28T03:04:28;93489.63;;;-3.65;100.00
59367;BME280;45163;47.690;11.770;2023-01-28T03:07:00;93485.75;;;-3.67;100.00
59367;BME280;45163;47.690;11.770;2023-01-28T03:09:29;93483.41;;;-3.69;100.00
59367;BME280;45163;47.690;11.770;2023-01-28T03:12:09;93487.63;;;-3.68;100.00
59367;BME280;45163;47.690;11.770;2023-01-28T03:14:55;93488.75;;;-3.69;100.00
59367;BME280;45163;47.690;11.770;2023-01-28T03:20:36;93487.88;;;-3.73;100.00
59367;BME280;45163;47.690;11.770;2023-01-28T03:23:27;93487.00;;;-3.77;100.00
59367;BME280;45163;47.690;11.770;2023-01-28T03:26:14;93492.00;;;-3.76;100.00
59367;BME280;45163;47.690;11.770;2023-01-28T03:29:05;93495.09;;;-3.73;100.00
59367;BME280;45163;47.690;11.770;2023-01-28T03:31:51;93498.63;;;-3.69;100.00
59367;BME280;45163;47.690;11.770;2023-01-28T03:34:37;93501.59;;;-3.59;100.00
59367;BME280;45163;47.690;11.770;2023-01-28T03:37:22;93497.81;;;-3.58;100.00
59367;BME280;45163;47.690;11.770;2023-01-28T03:39:48;93506.16;;;-3.59;100.00
59367;BME280;45163;47.690;11.770;2023-01-28T03:42:15;93509.94;;;-3.60;100.00
59367;BME280;45163;47.690;11.770;2023-01-28T03:44:43;93512.28;;;-3.59;100.00
59367;BME280;45163;47.690;11.770;2023-01-28T03:47:22;93508.38;;;-3.61;100.00
59367;BME280;45163;47.690;11.770;2023-01-28T03:49:50;93515.13;;;-3.52;100.00
59367;BME280;45163;47.690;11.770;2023-01-28T03:52:18;93521.25;;;-3.51;100.00
59367;BME280;45163;47.690;11.770;2023-01-28T03:54:45;93509.00;;;-3.52;100.00
59367;BME280;45163;47.690;11.770;2023-01-28T03:57:19;93511.16;;;-3.58;100.00
59367;BME280;45163;47.690;11.770;2023-01-28T03:59:46;93514.59;;;-3.57;100.00
59367;BME280;45163;47.690;11.770;2023-01-28T04:02:15;93513.72;;;-3.61;100.00
59367;BME280;45163;47.690;11.770;2023-01-28T04:04:42;93514.91;;;-3.46;100.00
59367;BME280;45163;47.690;11.770;2023-01-28T04:07:10;93520.66;;;-3.44;100.00
59367;BME280;45163;47.690;11.770;2023-01-28T04:09:36;93517.22;;;-3.45;100.00
59367;BME280;45163;47.690;11.770;2023-01-28T04:12:03;93516.44;;;-3.45;100.00
59367;BME280;45163;47.690;11.770;2023-01-28T04:14:29;93514.53;;;-3.45;100.00
59367;BME280;45163;47.690;11.770;2023-01-28T04:16:55;93514.53;;;-3.45;100.00
59367;BME280;45163;47.690;11.770;2023-01-28T04:19:22;93505.09;;;-3.42;100.00
59367;BME280;45163;47.690;11.770;2023-01-28T04:21:48;93519.53;;;-3.43;100.00
59367;BME280;45163;47.690;11.770;2023-01-28T04:24:15;93518.44;;;-3.42;100.00
59367;BME280;45163;47.690;11.770;2023-01-28T04:26:41;93519.78;;;-3.48;100.00
59367;BME280;45163;47.690;11.770;2023-01-28T04:29:07;93525.72;;;-3.55;100.00
59367;BME280;45163;47.690;11.770;2023-01-28T04:31:33;93522.59;;;-3.57;100.00
59367;BME280;45163;47.690;11.770;2023-01-28T04:33:59;93522.59;;;-3.57;100.00
59367;BME280;45163;47.690;11.770;2023-01-28T04:36:26;93527.84;;;-3.61;100.00
59367;BME280;45163;47.690;11.770;2023-01-28T04:38:52;93527.84;;;-3.61;100.00
59367;BME280;45163;47.690;11.770;2023-01-28T04:41:18;93526.63;;;-3.63;100.00
59367;BME280;45163;47.690;11.770;2023-01-28T04:43:45;93536.44;;;-3.67;100.00
59367;BME280;45163;47.690;11.770;2023-01-28T04:46:11;93539.88;;;-3.67;100.00
59367;BME280;45163;47.690;11.770;2023-01-28T04:48:37;93535.22;;;-3.70;100.00
59367;BME280;45163;47.690;11.770;2023-01-28T04:51:03;93539.53;;;-3.65;100.00
59367;BME280;45163;47.690;11.770;2023-01-28T04:53:29;93538.09;;;-3.63;100.00
59367;BME280;45163;47.690;11.770;2023-01-28T04:55:56;93541.72;;;-3.55;100.00
59367;BME280;45163;47.690;11.770;2023-01-28T04:58:22;93541.56;;;-3.46;100.00
59367;BME280;45163;47.690;11.770;2023-01-28T05:00:58;93541.56;;;-3.46;100.00
59367;BME280;45163;47.690;11.770;2023-01-28T05:03:25;93552.25;;;-3.46;100.00
59367;BME280;45163;47.690;11.770;2023-01-28T05:05:51;93550.25;;;-3.49;100.00
59367;BME280;45163;47.690;11.770;2023-01-28T05:08:18;93552.16;;;-3.50;100.00
59367;BME280;45163;47.690;11.770;2023-01-28T05:10:44;93555.78;;;-3.42;100.00
59367;BME280;45163;47.690;11.770;2023-01-28T05:13:10;93549.44;;;-3.38;100.00
59367;BME280;45163;47.690;11.770;2023-01-28T05:15:36;93557.09;;;-3.36;100.00
59367;BME280;45163;47.690;11.770;2023-01-28T05:18:02;93549.84;;;-3.36;100.00
59367;BME280;45163;47.690;11.770;2023-01-28T05:20:28;93556.88;;;-3.43;100.00
59367;BME280;45163;47.690;11.770;2023-01-28T05:22:54;93552.31;;;-3.43;100.00
59367;BME280;45163;47.690;11.770;2023-01-28T05:25:20;93553.03;;;-3.46;100.00
59367;BME280;45163;47.690;11.770;2023-01-28T05:27:50;93563.59;;;-3.49;100.00
59367;BME280;45163;47.690;11.770;2023-01-28T05:30:20;93563.94;;;-3.51;100.00
59367;BME280;45163;47.690;11.770;2023-01-28T05:32:46;93552.16;;;-3.50;100.00
59367;BME280;45163;47.690;11.770;2023-01-28T05:35:12;93568.47;;;-3.52;100.00
59367;BME280;45163;47.690;11.770;2023-01-28T05:37:38;93567.91;;;-3.45;100.00
59367;BME280;45163;47.690;11.770;2023-01-28T05:40:04;93568.00;;;-3.41;100.00
59367;BME280;45163;47.690;11.770;2023-01-28T05:42:30;93565.59;;;-3.46;100.00
59367;BME280;45163;47.690;11.770;2023-01-28T05:44:56;93565.03;;;-3.52;100.00
59367;BME280;45163;47.690;11.770;2023-01-28T05:47:22;93568.94;;;-3.49;100.00
59367;BME280;45163;47.690;11.770;2023-01-28T05:49:48;93574.22;;;-3.37;100.00
59367;BME280;45163;47.690;11.770;2023-01-28T05:52:14;93581.78;;;-3.39;100.00
59367;BME280;45163;47.690;11.770;2023-01-28T05:54:40;93589.69;;;-3.43;100.00
59367;BME280;45163;47.690;11.770;2023-01-28T05:57:06;93589.34;;;-3.41;100.00
59367;BME280;45163;47.690;11.770;2023-01-28T05:59:32;93586.13;;;-3.47;100.00
59367;BME280;45163;47.690;11.770;2023-01-28T06:01:58;93599.41;;;-3.51;100.00
59367;BME280;45163;47.690;11.770;2023-01-28T06:04:24;93594.06;;;-3.51;100.00
59367;BME280;45163;47.690;11.770;2023-01-28T06:06:50;93590.94;;;-3.53;100.00
59367;BME280;45163;47.690;11.770;2023-01-28T06:09:16;93593.28;;;-3.51;100.00
59367;BME280;45163;47.690;11.770;2023-01-28T06:11:42;93602.28;;;-3.56;100.00
59367;BME280;45163;47.690;11.770;2023-01-28T06:14:10;93610.28;;;-3.56;100.00
59367;BME280;45163;47.690;11.770;2023-01-28T06:16:36;93607.63;;;-3.56;100.00
59367;BME280;45163;47.690;11.770;2023-01-28T06:19:02;93601.84;;;-3.58;100.00
59367;BME280;45163;47.690;11.770;2023-01-28T06:21:28;93609.84;;;-3.58;100.00
59367;BME280;45163;47.690;11.770;2023-01-28T06:23:54;93604.06;;;-3.60;100.00
59367;BME280;45163;47.690;11.770;2023-01-28T06:26:20;93614.75;;;-3.60;100.00
59367;BME280;45163;47.690;11.770;2023-01-28T06:28:46;93606.41;;;-3.58;100.00
59367;BME280;45163;47.690;11.770;2023-01-28T06:31:12;93624.31;;;-3.59;100.00
59367;BME280;45163;47.690;11.770;2023-01-28T06:33:38;93620.44;;;-3.61;100.00
59367;BME280;45163;47.690;11.770;2023-01-28T06:36:04;93617.41;;;-3.60;100.00
59367;BME280;45163;47.690;11.770;2023-01-28T06:38:33;93623.09;;;-3.61;100.00
59367;BME280;45163;47.690;11.770;2023-01-28T06:40:59;93632.63;;;-3.60;100.00
59367;BME280;45163;47.690;11.770;2023-01-28T06:43:25;93636.09;;;-3.60;100.00
59367;BME280;45163;47.690;11.770;2023-01-28T06:45:56;93628.44;;;-3.61;100.00
59367;BME280;45163;47.690;11.770;2023-01-28T06:48:23;93629.66;;;-3.59;100.00
59367;BME280;45163;47.690;11.770;2023-01-28T06:50:50;93634.53;;;-3.61;100.00
59367;BME280;45163;47.690;11.770;2023-01-28T06:53:16;93641.09;;;-3.58;100.00
59367;BME280;45163;47.690;11.770;2023-01-28T06:55:42;93636.78;;;-3.63;100.00
59367;BME280;45163;47.690;11.770;2023-01-28T06:58:08;93637.31;;;-3.57;100.00
59367;BME280;45163;47.690;11.770;2023-01-28T07:00:35;93634.66;;;-3.57;100.00
59367;BME280;45163;47.690;11.770;2023-01-28T07:03:03;93639.63;;;-3.56;100.00
59367;BME280;45163;47.690;11.770;2023-01-28T07:05:29;93638.97;;;-3.53;100.00
59367;BME280;45163;47.690;11.770;2023-01-28T07:07:55;93641.97;;;-3.54;100.00
59367;BME280;45163;47.690;11.770;2023-01-28T07:10:21;93643.97;;;-3.51;100.00
59367;BME280;45163;47.690;11.770;2023-01-28T07:12:47;93640.97;;;-3.49;100.00
59367;BME280;45163;47.690;11.770;2023-01-28T07:15:13;93651.97;;;-3.51;100.00
59367;BME280;45163;47.690;11.770;2023-01-28T07:17:40;93641.50;;;-3.44;100.00
59367;BME280;45163;47.690;11.770;2023-01-28T07:20:08;93644.28;;;-3.40;100.00
59367;BME280;45163;47.690;11.770;2023-01-28T07:22:36;93648.50;;;-3.39;100.00
59367;BME280;45163;47.690;11.770;2023-01-28T07:25:05;93653.81;;;-3.39;100.00
59367;BME280;45163;47.690;11.770;2023-01-28T07:27:31;93651.72;;;-3.34;100.00
59367;BME280;45163;47.690;11.770;2023-01-28T07:29:57;93657.06;;;-3.34;100.00
59367;BME280;45163;47.690;11.770;2023-01-28T07:32:23;93653.69;;;-3.31;100.00
59367;BME280;45163;47.690;11.770;2023-01-28T07:34:55;93660.78;;;-3.22;100.00
59367;BME280;45163;47.690;11.770;2023-01-28T07:37:21;93652.72;;;-3.10;100.00
59367;BME280;45163;47.690;11.770;2023-01-28T07:39:47;93656.13;;;-2.97;100.00
59367;BME280;45163;47.690;11.770;2023-01-28T07:42:13;93655.03;;;-2.96;100.00
59367;BME280;45163;47.690;11.770;2023-01-28T07:44:39;93659.81;;;-3.02;100.00
59367;BME280;45163;47.690;11.770;2023-01-28T07:47:05;93662.84;;;-3.04;100.00
59367;BME280;45163;47.690;11.770;2023-01-28T07:49:34;93671.41;;;-3.10;100.00
59367;BME280;45163;47.690;11.770;2023-01-28T07:52:01;93667.22;;;-3.11;100.00
59367;BME280;45163;47.690;11.770;2023-01-28T07:54:28;93677.53;;;-3.10;100.00
59367;BME280;45163;47.690;11.770;2023-01-28T07:56:54;93675.75;;;-3.06;100.00
59367;BME280;45163;47.690;11.770;2023-01-28T07:59:20;93678.75;;;-3.07;100.00
59367;BME280;45163;47.690;11.770;2023-01-28T08:01:46;93674.81;;;-2.97;100.00
59367;BME280;45163;47.690;11.770;2023-01-28T08:04:12;93677.59;;;-2.94;100.00
59367;BME280;45163;47.690;11.770;2023-01-28T08:06:38;93679.59;;;-2.91;100.00
59367;BME280;45163;47.690;11.770;2023-01-28T08:09:05;93680.38;;;-2.90;100.00
59367;BME280;45163;47.690;11.770;2023-01-28T08:11:33;93686.38;;;-2.93;100.00
59367;BME280;45163;47.690;11.770;2023-01-28T08:14:02;93686.06;;;-2.92;100.00
59367;BME280;45163;47.690;11.770;2023-01-28T08:16:28;93693.16;;;-2.84;100.00
59367;BME280;45163;47.690;11.770;2023-01-28T08:18:55;93689.47;;;-2.79;100.00
59367;BME280;45163;47.690;11.770;2023-01-28T08:21:21;93699.31;;;-2.67;100.00
59367;BME280;45163;47.690;11.770;2023-01-28T08:23:47;93705.84;;;-2.65;100.00
59367;BME280;45163;47.690;11.770;2023-01-28T08:26:13;93706.22;;;-2.66;100.00
59367;BME280;45163;47.690;11.770;2023-01-28T08:28:39;93705.59;;;-2.60;100.00
59367;BME280;45163;47.690;11.770;2023-01-28T08:31:05;93709.25;;;-2.52;100.00
59367;BME280;45163;47.690;11.770;2023-01-28T08:33:31;93708.91;;;-2.51;100.00
59367;BME280;45163;47.690;11.770;2023-01-28T08:35:57;93709.78;;;-2.46;100.00
59367;BME280;45163;47.690;11.770;2023-01-28T08:38:23;93719.94;;;-2.52;100.00
59367;BME280;45163;47.690;11.770;2023-01-28T08:40:50;93719.69;;;-2.47;100.00
59367;BME280;45163;47.690;11.770;2023-01-28T08:43:18;93712.88;;;-2.44;100.00
59367;BME280;45163;47.690;11.770;2023-01-28T08:45:44;93708.81;;;-2.38;100.00
59367;BME280;45163;47.690;11.770;2023-01-28T08:48:14;93702.03;;;-2.36;100.00
59367;BME280;45163;47.690;11.770;2023-01-28T08:50:40;93719.28;;;-2.33;100.00
59367;BME280;45163;47.690;11.770;2023-01-28T08:53:10;93718.94;;;-2.32;100.00
59367;BME280;45163;47.690;11.770;2023-01-28T08:55:36;93717.66;;;-2.38;100.00
59367;BME280;45163;47.690;11.770;2023-01-28T08:58:04;93726.19;;;-2.32;100.00
59367;BME280;45163;47.690;11.770;2023-01-28T09:00:32;93724.75;;;-2.30;100.00
59367;BME280;45163;47.690;11.770;2023-01-28T09:02:58;93719.91;;;-2.24;100.00
59367;BME280;45163;47.690;11.770;2023-01-28T09:05:24;93724.72;;;-2.14;100.00
59367;BME280;45163;47.690;11.770;2023-01-28T09:07:50;93731.41;;;-2.08;100.00
59367;BME280;45163;47.690;11.770;2023-01-28T09:10:17;93742.19;;;-2.04;100.00
59367;BME280;45163;47.690;11.770;2023-01-28T09:12:45;93740.81;;;-1.98;100.00
59367;BME280;45163;47.690;11.770;2023-01-28T09:15:11;93739.09;;;-1.90;100.00
59367;BME280;45163;47.690;11.770;2023-01-28T09:17:38;93735.88;;;-1.80;100.00
59367;BME280;45163;47.690;11.770;2023-01-28T09:20:06;93737.19;;;-1.74;100.00
59367;BME280;45163;47.690;11.770;2023-01-28T09:22:33;93736.16;;;-1.69;100.00
59367;BME280;45163;47.690;11.770;2023-01-28T09:24:59;93738.72;;;-1.57;100.00
59367;BME280;45163;47.690;11.770;2023-01-28T09:27:24;93735.00;;;-1.53;100.00
59367;BME280;45163;47.690;11.770;2023-01-28T09:29:50;93739.81;;;-1.42;100.00
59367;BME280;45163;47.690;11.770;2023-01-28T09:32:16;93736.25;;;-1.31;100.00
59367;BME280;45163;47.690;11.770;2023-01-28T09:34:42;93737.13;;;-1.27;100.00
59367;BME280;45163;47.690;11.770;2023-01-28T09:37:10;93732.53;;;-1.26;100.00
59367;BME280;45163;47.690;11.770;2023-01-28T09:39:37;93733.06;;;-1.20;100.00
59367;BME280;45163;47.690;11.770;2023-01-28T09:47:38;93736.16;;;-1.18;100.00
59367;BME280;45163;47.690;11.770;2023-01-28T09:50:10;93737.94;;;-1.07;100.00
59367;BME280;45163;47.690;11.770;2023-01-28T09:52:38;93726.06;;;-0.90;100.00
59367;BME280;45163;47.690;11.770;2023-01-28T09:55:33;93732.97;;;-0.69;100.00
59367;BME280;45163;47.690;11.770;2023-01-28T09:57:58;93727.19;;;-0.71;100.00
59367;BME280;45163;47.690;11.770;2023-01-28T10:11:00;93711.53;;;0.65;100.00
59367;BME280;45163;47.690;11.770;2023-01-28T10:14:03;93712.69;;;0.64;100.00
59367;BME280;45163;47.690;11.770;2023-01-28T10:16:39;93706.09;;;0.61;100.00
59367;BME280;45163;47.690;11.770;2023-01-28T10:19:13;93704.75;;;1.01;100.00
59367;BME280;45163;47.690;11.770;2023-01-28T10:22:06;93703.44;;;1.18;100.00
59367;BME280;45163;47.690;11.770;2023-01-28T10:24:38;93696.44;;;1.43;100.00
59367;BME280;45163;47.690;11.770;2023-01-28T10:27:16;93697.41;;;1.62;100.00
59367;BME280;45163;47.690;11.770;2023-01-28T10:29:46;93696.59;;;1.58;100.00
59367;BME280;45163;47.690;11.770;2023-01-28T10:32:32;93683.78;;;1.81;100.00
59367;BME280;45163;47.690;11.770;2023-01-28T10:35:01;93686.13;;;1.86;100.00
59367;BME280;45163;47.690;11.770;2023-01-28T10:37:32;93686.84;;;2.24;100.00
59367;BME280;45163;47.690;11.770;2023-01-28T10:40:00;93686.72;;;2.58;100.00
59367;BME280;45163;47.690;11.770;2023-01-28T10:42:33;93686.22;;;2.96;100.00
59367;BME280;45163;47.690;11.770;2023-01-28T10:45:04;93685.59;;;3.24;100.00
59367;BME280;45163;47.690;11.770;2023-01-28T10:47:37;93682.50;;;3.19;100.00
59367;BME280;45163;47.690;11.770;2023-01-28T10:50:22;93682.09;;;3.20;100.00
59367;BME280;45163;47.690;11.770;2023-01-28T10:52:52;93676.19;;;3.91;100.00
59367;BME280;45163;47.690;11.770;2023-01-28T10:55:18;93676.56;;;4.00;100.00
59367;BME280;45163;47.690;11.770;2023-01-28T10:57:44;93673.44;;;3.70;100.00
59367;BME280;45163;47.690;11.770;2023-01-28T11:00:22;93671.91;;;3.76;100.00
59367;BME280;45163;47.690;11.770;2023-01-28T11:02:49;93673.09;;;3.89;100.00
59367;BME280;45163;47.690;11.770;2023-01-28T11:05:16;93664.41;;;3.23;100.00
59367;BME280;45163;47.690;11.770;2023-01-28T11:07:43;93668.13;;;4.27;100.00
59367;BME280;45163;47.690;11.770;2023-01-28T11:12:58;93657.19;;;5.23;100.00
59367;BME280;45163;47.690;11.770;2023-01-28T11:15:25;93662.75;;;5.79;100.00
59367;BME280;45163;47.690;11.770;2023-01-28T11:17:57;93653.88;;;7.28;100.00
59367;BME280;45163;47.690;11.770;2023-01-28T11:20:25;93661.38;;;9.33;100.00
59367;BME280;45163;47.690;11.770;2023-01-28T11:22:53;93660.38;;;10.03;93.93
59367;BME280;45163;47.690;11.770;2023-01-28T11:25:35;93660.16;;;9.14;83.08
59367;BME280;45163;47.690;11.770;2023-01-28T11:28:07;93656.09;;;6.98;82.39
59367;BME280;45163;47.690;11.770;2023-01-28T11:30:40;93656.00;;;5.32;89.58
59367;BME280;45163;47.690;11.770;2023-01-28T11:38:22;93666.88;;;2.84;100.00
59367;BME280;45163;47.690;11.770;2023-01-28T11:40:56;93664.06;;;2.11;100.00
59367;BME280;45163;47.690;11.770;2023-01-28T11:43:24;93667.59;;;1.78;100.00
59367;BME280;45163;47.690;11.770;2023-01-28T11:52:04;93661.16;;;1.48;100.00
59367;BME280;45163;47.690;11.770;2023-01-28T12:08:28;93668.34;;;1.41;100.00
59367;BME280;45163;47.690;11.770;2023-01-28T12:26:14;93672.72;;;0.89;100.00
59367;BME280;45163;47.690;11.770;2023-01-28T12:41:48;93678.59;;;0.18;100.00
59367;BME280;45163;47.690;11.770;2023-01-28T12:44:26;93675.63;;;0.01;100.00
59367;BME280;45163;47.690;11.770;2023-01-28T12:47:02;93674.63;;;0.09;100.00
59367;BME280;45163;47.690;11.770;2023-01-28T12:49:34;93676.94;;;-0.13;100.00
59367;BME280;45163;47.690;11.770;2023-01-28T12:55:14;93673.69;;;-0.45;100.00
59367;BME280;45163;47.690;11.770;2023-01-28T12:57:42;93670.25;;;-0.65;100.00
59367;BME280;45163;47.690;11.770;2023-01-28T13:00:33;93673.41;;;-0.59;100.00
59367;BME280;45163;47.690;11.770;2023-01-28T13:05:34;93681.81;;;-0.61;100.00
59367;BME280;45163;47.690;11.770;2023-01-28T13:08:10;93681.41;;;-0.63;100.00
59367;BME280;45163;47.690;11.770;2023-01-28T13:10:43;93688.19;;;-0.69;100.00
59367;BME280;45163;47.690;11.770;2023-01-28T13:13:28;93690.53;;;-0.87;100.00
59367;BME280;45163;47.690;11.770;2023-01-28T13:15:55;93694.88;;;-0.98;100.00
59367;BME280;45163;47.690;11.770;2023-01-28T13:24:04;93699.34;;;-1.21;100.00
59367;BME280;45163;47.690;11.770;2023-01-28T13:31:52;93712.69;;;-1.25;100.00
59367;BME280;45163;47.690;11.770;2023-01-28T13:37:28;93715.69;;;-1.27;100.00
59367;BME280;45163;47.690;11.770;2023-01-28T13:40:01;93720.56;;;-1.32;100.00
59367;BME280;45163;47.690;11.770;2023-01-28T13:42:29;93719.69;;;-1.36;100.00
59367;BME280;45163;47.690;11.770;2023-01-28T13:45:06;93723.16;;;-1.52;100.00
59367;BME280;45163;47.690;11.770;2023-01-28T13:47:34;93724.88;;;-1.43;100.00
59367;BME280;45163;47.690;11.770;2023-01-28T13:50:05;93732.91;;;-1.43;100.00
59367;BME280;45163;47.690;11.770;2023-01-28T13:53:01;93735.41;;;-1.35;100.00
59367;BME280;45163;47.690;11.770;2023-01-28T13:55:37;93749.06;;;-1.40;100.00
59367;BME280;45163;47.690;11.770;2023-01-28T14:15:13;93750.47;;;-1.62;100.00
59367;BME280;45163;47.690;11.770;2023-01-28T14:17:53;93753.56;;;-1.60;100.00
59367;BME280;45163;47.690;11.770;2023-01-28T14:20:27;93757.72;;;-1.62;100.00
59367;BME280;45163;47.690;11.770;2023-01-28T14:23:01;93764.03;;;-1.55;100.00
59367;BME280;45163;47.690;11.770;2023-01-28T14:25:49;93769.38;;;-1.55;100.00
59367;BME280;45163;47.690;11.770;2023-01-28T14:28:50;93769.81;;;-1.53;100.00
59367;BME280;45163;47.690;11.770;2023-01-28T14:31:35;93768.41;;;-1.46;100.00
59367;BME280;45163;47.690;11.770;2023-01-28T14:36:47;93773.00;;;-1.47;100.00
59367;BME280;45163;47.690;11.770;2023-01-28T14:39:27;93766.19;;;-1.60;100.00
59367;BME280;45163;47.690;11.770;2023-01-28T14:41:58;93781.09;;;-1.59;100.00
59367;BME280;45163;47.690;11.770;2023-01-28T14:50:09;93777.75;;;-1.72;100.00
59367;BME280;45163;47.690;11.770;2023-01-28T14:58:05;93793.72;;;-1.91;100.00
59367;BME280;45163;47.690;11.770;2023-01-28T15:00:34;93793.00;;;-1.88;100.00
59367;BME280;45163;47.690;11.770;2023-01-28T15:03:08;93787.75;;;-1.85;100.00
59367;BME280;45163;47.690;11.770;2023-01-28T15:05:34;93790.88;;;-1.83;100.00
59367;BME280;45163;47.690;11.770;2023-01-28T15:08:00;93803.13;;;-1.82;100.00
59367;BME280;45163;47.690;11.770;2023-01-28T15:13:07;93799.75;;;-1.79;100.00
59367;BME280;45163;47.690;11.770;2023-01-28T15:15:38;93805.88;;;-1.78;100.00
59367;BME280;45163;47.690;11.770;2023-01-28T15:18:21;93816.59;;;-1.78;100.00